Time;durP1;ratioP1;P1;durP2;ratioP2;P2;SDS_P1;SDS_P2;PMS_P1;PMS_P2;Temp;Humidity;BMP_temperature;BMP_pressure;BME280_temperature;BME280_humidity;BME280_pressure;Samples;Min_cycle;Max_cycle;Signal;HPM_P1;HPM_P2
2023/12/27 00:01:42;;;;;;;9.20;1.48;;;3.60;90.30;;;;;;5083886;28;20032;-45
2023/12/27 00:04:11;;;;;;;5.35;1.88;;;3.50;90.20;;;;;;5075789;28;20021;-47
2023/12/27 00:06:39;;;;;;;7.47;1.10;;;3.50;90.30;;;;;;5078422;28;20027;-45
2023/12/27 00:09:06;;;;;;;7.80;1.70;;;3.50;90.20;;;;;;5072206;28;20032;-49
2023/12/27 00:11:34;;;;;;;11.02;1.80;;;3.50;90.30;;;;;;5072042;28;20033;-49
2023/12/27 00:14:02;;;;;;;10.10;2.08;;;3.50;90.30;;;;;;5073836;28;20438;-46
2023/12/27 00:16:29;;;;;;;6.30;1.40;;;3.40;90.40;;;;;;5071903;28;20049;-45
2023/12/27 00:18:59;;;;;;;13.02;2.20;;;3.40;90.40;;;;;;5072298;28;20043;-48
2023/12/27 00:21:25;;;;;;;14.05;2.05;;;3.30;90.30;;;;;;5073804;28;20031;-46
2023/12/27 00:23:53;;;;;;;6.32;1.88;;;3.30;90.50;;;;;;5072861;28;20792;-46
2023/12/27 00:26:19;;;;;;;8.25;1.88;;;3.30;90.50;;;;;;5071815;28;20036;-47
2023/12/27 00:28:48;;;;;;;6.57;1.70;;;3.30;90.60;;;;;;5073682;28;20029;-44
2023/12/27 00:31:15;;;;;;;6.47;2.17;;;3.20;90.60;;;;;;5071967;28;20155;-46
2023/12/27 00:33:43;;;;;;;10.70;2.00;;;3.20;90.60;;;;;;5072043;28;20320;-47
2023/12/27 00:36:09;;;;;;;10.13;2.42;;;3.10;90.60;;;;;;5055259;28;20028;-45
2023/12/27 00:38:36;;;;;;;5.72;1.65;;;3.20;90.70;;;;;;5054341;28;20051;-45
2023/12/27 00:41:07;;;;;;;9.13;2.10;;;3.10;90.70;;;;;;5072079;28;20404;-46
2023/12/27 00:43:36;;;;;;;8.60;1.50;;;3.00;90.80;;;;;;5075708;28;20012;-47
2023/12/27 00:46:06;;;;;;;9.70;1.73;;;3.00;90.80;;;;;;5075672;28;20055;-48
2023/12/27 00:48:33;;;;;;;12.63;2.05;;;3.00;90.80;;;;;;5075097;28;20111;-53
2023/12/27 00:51:00;;;;;;;10.80;2.30;;;2.90;90.90;;;;;;5075599;28;20458;-47
2023/12/27 00:53:29;;;;;;;9.32;2.10;;;2.90;91.00;;;;;;5057851;28;20025;-50
2023/12/27 00:55:56;;;;;;;7.07;2.23;;;2.90;91.10;;;;;;5075772;28;20028;-49
2023/12/27 00:58:23;;;;;;;11.88;4.10;;;2.90;91.10;;;;;;5075126;28;20608;-49
2023/12/27 01:00:49;;;;;;;9.65;2.13;;;2.90;91.20;;;;;;5075375;28;20021;-52
2023/12/27 01:03:16;;;;;;;9.50;3.75;;;2.80;91.30;;;;;;5074955;28;20850;-49
2023/12/27 01:05:42;;;;;;;8.48;1.75;;;2.80;91.30;;;;;;5075480;28;20376;-50
2023/12/27 01:08:09;;;;;;;9.20;2.00;;;2.80;91.30;;;;;;5074971;28;20159;-50
2023/12/27 01:10:36;;;;;;;12.60;2.22;;;2.70;91.50;;;;;;5076285;28;20473;-48
2023/12/27 01:13:01;;;;;;;8.40;2.25;;;2.80;91.60;;;;;;5075128;28;20033;-48
2023/12/27 01:15:28;;;;;;;6.50;1.98;;;2.70;91.60;;;;;;5075965;28;20056;-52
2023/12/27 01:17:54;;;;;;;8.32;1.77;;;2.70;91.60;;;;;;5075090;28;20064;-48
2023/12/27 01:20:21;;;;;;;9.23;2.00;;;2.70;91.60;;;;;;5078357;28;20052;-49
2023/12/27 01:22:53;;;;;;;9.05;2.25;;;2.70;91.70;;;;;;5074630;28;20024;-50
2023/12/27 01:25:20;;;;;;;7.32;1.75;;;2.70;91.70;;;;;;5064042;28;20032;-50
2023/12/27 01:27:47;;;;;;;15.15;2.25;;;2.70;91.60;;;;;;5074829;28;20588;-48
2023/12/27 01:30:14;;;;;;;7.13;1.85;;;2.70;91.60;;;;;;5077072;28;20779;-48
2023/12/27 01:32:41;;;;;;;12.77;3.10;;;2.70;91.70;;;;;;5074803;28;20123;-48
2023/12/27 01:35:07;;;;;;;9.57;1.92;;;2.60;91.60;;;;;;5085985;28;20333;-51
2023/12/27 01:37:34;;;;;;;7.43;1.95;;;2.60;91.80;;;;;;5075364;28;20460;-48
2023/12/27 01:40:01;;;;;;;5.68;2.10;;;2.70;91.80;;;;;;5075802;28;20029;-48
2023/12/27 01:42:28;;;;;;;9.38;2.35;;;2.70;91.80;;;;;;5086618;28;20081;-49
2023/12/27 01:44:55;;;;;;;12.52;3.45;;;2.70;91.80;;;;;;5078479;28;20044;-50
2023/12/27 01:47:21;;;;;;;12.02;2.78;;;2.70;91.80;;;;;;5074045;28;20032;-51
2023/12/27 01:49:48;;;;;;;10.43;2.00;;;2.60;91.80;;;;;;5075045;28;20036;-48
2023/12/27 01:52:18;;;;;;;10.50;1.60;;;2.60;91.80;;;;;;5074418;28;20036;-50
2023/12/27 01:54:45;;;;;;;;;;;2.60;91.90;;;;;;5073578;28;20105;-48
2023/12/27 01:57:15;;;;;;;6.28;1.40;;;2.60;91.80;;;;;;5074116;28;19908;-49
2023/12/27 01:59:44;;;;;;;7.93;2.05;;;2.60;91.80;;;;;;5076420;28;20038;-47
2023/12/27 02:02:11;;;;;;;9.18;2.20;;;2.60;91.70;;;;;;5073810;28;20107;-47
2023/12/27 02:04:38;;;;;;;8.60;2.60;;;2.50;91.70;;;;;;5073816;28;20031;-47
2023/12/27 02:07:04;;;;;;;10.90;2.13;;;2.50;91.70;;;;;;5074167;28;20024;-47
2023/12/27 02:09:32;;;;;;;8.38;2.65;;;2.60;91.70;;;;;;5069038;28;20032;-49
2023/12/27 02:11:59;;;;;;;13.00;5.47;;;2.50;91.70;;;;;;5073283;28;20043;-47
2023/12/27 02:14:26;;;;;;;11.70;1.92;;;2.50;91.80;;;;;;5076869;28;20023;-48
2023/12/27 02:16:54;;;;;;;10.70;2.70;;;2.50;91.80;;;;;;5064870;28;20044;-48
2023/12/27 02:19:24;;;;;;;13.35;4.28;;;2.50;91.90;;;;;;5073868;28;20373;-47
2023/12/27 02:21:52;;;;;;;4.95;1.50;;;2.50;91.90;;;;;;5073638;28;20438;-48
2023/12/27 02:24:21;;;;;;;9.02;3.05;;;2.60;92.00;;;;;;5083684;28;20070;-47
2023/12/27 02:26:48;;;;;;;9.15;1.60;;;2.50;91.90;;;;;;5071555;28;20473;-50
2023/12/27 02:29:19;;;;;;;6.28;1.90;;;2.50;91.90;;;;;;5075244;28;20102;-48
2023/12/27 02:31:46;;;;;;;10.20;2.20;;;2.50;91.90;;;;;;5082706;28;20036;-49
2023/12/27 02:34:12;;;;;;;4.38;1.55;;;2.40;91.80;;;;;;5076078;28;20047;-47
2023/12/27 02:36:44;;;;;;;8.60;2.13;;;2.40;91.80;;;;;;5059632;28;20111;-47
2023/12/27 02:39:11;;;;;;;21.45;3.60;;;2.40;91.90;;;;;;5080428;28;20020;-48
2023/12/27 02:41:39;;;;;;;10.27;2.33;;;2.40;92.00;;;;;;5078794;28;20025;-49
2023/12/27 02:44:06;;;;;;;8.68;2.10;;;2.40;91.90;;;;;;5080500;28;20413;-51
2023/12/27 02:46:38;;;;;;;12.43;2.20;;;2.40;91.90;;;;;;5084980;28;20093;-47
2023/12/27 02:49:05;;;;;;;10.15;2.35;;;2.40;91.90;;;;;;5073345;28;20025;-46
2023/12/27 02:51:31;;;;;;;9.85;1.80;;;2.40;92.00;;;;;;5073116;28;20037;-50
2023/12/27 02:54:01;;;;;;;5.95;1.60;;;2.40;92.00;;;;;;5073131;28;20446;-47
2023/12/27 02:56:28;;;;;;;9.65;1.45;;;2.40;92.00;;;;;;5073015;28;20133;-49
2023/12/27 02:58:56;;;;;;;6.85;1.85;;;2.40;92.00;;;;;;5074460;28;20035;-49
2023/12/27 03:01:22;;;;;;;11.48;2.00;;;2.40;92.00;;;;;;5081636;28;20350;-49
2023/12/27 03:03:49;;;;;;;6.78;1.70;;;2.40;92.00;;;;;;5073004;28;20028;-51
2023/12/27 03:06:17;;;;;;;6.38;2.40;;;2.30;92.00;;;;;;5072891;28;20020;-50
2023/12/27 03:08:44;;;;;;;7.75;2.58;;;2.30;92.00;;;;;;5072849;28;20050;-48
2023/12/27 03:11:11;;;;;;;10.25;1.70;;;2.30;91.90;;;;;;5073258;28;20020;-48
2023/12/27 03:13:38;;;;;;;9.80;2.13;;;2.30;91.90;;;;;;5087266;28;20035;-48
2023/12/27 03:16:05;;;;;;;6.57;2.00;;;2.30;91.90;;;;;;5058055;28;20079;-49
2023/12/27 03:18:37;;;;;;;19.05;3.00;;;2.20;91.80;;;;;;5068051;28;20036;-47
2023/12/27 03:21:07;;;;;;;9.25;1.98;;;2.30;91.90;;;;;;5072848;28;20047;-49
2023/12/27 03:23:34;;;;;;;12.30;2.28;;;2.30;92.00;;;;;;5072246;28;20017;-48
2023/12/27 03:26:03;;;;;;;9.93;2.03;;;2.20;92.00;;;;;;5074676;28;20082;-49
2023/12/27 03:28:30;;;;;;;9.48;3.95;;;2.20;91.90;;;;;;5078358;28;20031;-49
2023/12/27 03:30:56;;;;;;;8.75;1.77;;;2.20;92.00;;;;;;5085783;28;20059;-49
2023/12/27 03:33:23;;;;;;;12.60;2.80;;;2.20;92.10;;;;;;5072943;28;20020;-47
2023/12/27 03:35:50;;;;;;;8.85;2.00;;;2.20;92.10;;;;;;5088459;28;20024;-53
2023/12/27 03:38:16;;;;;;;9.40;2.50;;;2.20;91.90;;;;;;5081372;28;20051;-48
2023/12/27 03:40:43;;;;;;;12.02;2.40;;;2.20;92.00;;;;;;5076471;28;20559;-53
2023/12/27 03:43:13;;;;;;;7.82;3.13;;;2.10;92.00;;;;;;5075199;28;20025;-45
2023/12/27 03:45:39;;;;;;;16.40;2.40;;;2.10;92.00;;;;;;5087704;28;20036;-49
2023/12/27 03:48:06;;;;;;;7.35;2.10;;;2.10;91.90;;;;;;5071311;28;20361;-50
2023/12/27 03:50:32;;;;;;;10.70;2.75;;;2.10;92.00;;;;;;5072470;28;20028;-49
2023/12/27 03:52:58;;;;;;;11.48;2.22;;;2.10;92.00;;;;;;5072437;28;20527;-49
2023/12/27 03:55:27;;;;;;;10.77;2.25;;;2.00;91.90;;;;;;5068319;28;20111;-47
2023/12/27 03:57:54;;;;;;;5.68;1.85;;;2.00;92.00;;;;;;5078950;28;20039;-47
2023/12/27 04:00:21;;;;;;;9.60;2.35;;;2.00;92.00;;;;;;5088231;28;20450;-46
2023/12/27 04:02:47;;;;;;;8.60;2.15;;;2.00;92.10;;;;;;5071922;28;20031;-50
2023/12/27 04:05:14;;;;;;;6.00;1.73;;;2.00;92.10;;;;;;5072377;28;20176;-51
2023/12/27 04:07:43;;;;;;;7.82;2.03;;;2.00;92.20;;;;;;5073317;28;20347;-48
2023/12/27 04:10:10;;;;;;;9.20;1.80;;;1.90;92.20;;;;;;5076628;28;20024;-46
2023/12/27 04:12:36;;;;;;;8.88;2.10;;;2.00;92.30;;;;;;5072154;28;20028;-47
2023/12/27 04:15:04;;;;;;;8.98;2.13;;;2.00;92.20;;;;;;5070791;28;20045;-47
2023/12/27 04:17:33;;;;;;;9.60;2.85;;;2.00;92.30;;;;;;5084116;28;20086;-46
2023/12/27 04:20:02;;;;;;;9.43;2.47;;;2.00;92.20;;;;;;5076479;28;20033;-47
2023/12/27 04:22:29;;;;;;;11.77;3.22;;;2.00;92.20;;;;;;5075968;28;20029;-48
2023/12/27 04:24:56;;;;;;;8.90;2.05;;;2.00;92.20;;;;;;5075840;28;20021;-51
2023/12/27 04:27:25;;;;;;;10.20;2.90;;;2.00;92.10;;;;;;5075870;28;20121;-49
2023/12/27 04:29:52;;;;;;;8.20;1.73;;;2.00;92.20;;;;;;5076201;28;20021;-46
2023/12/27 04:32:18;;;;;;;9.68;3.25;;;2.00;92.20;;;;;;5075490;28;20068;-46
2023/12/27 04:34:45;;;;;;;9.10;2.33;;;2.00;92.20;;;;;;5084089;28;20102;-46
2023/12/27 04:37:12;;;;;;;6.22;1.88;;;2.00;92.20;;;;;;5075896;28;20016;-47
2023/12/27 04:39:39;;;;;;;5.28;1.98;;;2.00;92.20;;;;;;5078301;28;20017;-46
2023/12/27 04:42:06;;;;;;;9.27;2.70;;;2.00;92.20;;;;;;5075572;28;20107;-48
2023/12/27 04:44:33;;;;;;;7.53;2.17;;;2.00;92.20;;;;;;5083279;28;20070;-47
2023/12/27 04:47:01;;;;;;;4.80;1.75;;;2.00;92.20;;;;;;5081204;28;20519;-47
2023/12/27 04:49:27;;;;;;;5.47;2.38;;;2.10;92.30;;;;;;5075528;28;20042;-48
2023/12/27 04:51:56;;;;;;;9.02;1.73;;;2.10;92.20;;;;;;5075381;28;20035;-45
2023/12/27 04:54:23;;;;;;;5.97;2.08;;;2.10;92.10;;;;;;5055991;28;20127;-48
2023/12/27 04:56:54;;;;;;;11.40;2.22;;;2.10;92.20;;;;;;5072868;28;20036;-48
2023/12/27 04:59:22;;;;;;;6.30;1.92;;;2.10;92.30;;;;;;5091301;28;20028;-46
2023/12/27 05:01:49;;;;;;;15.38;2.60;;;2.10;92.30;;;;;;5086907;28;20453;-46
2023/12/27 05:04:16;;;;;;;13.07;2.78;;;2.10;92.20;;;;;;5091983;28;20085;-46
2023/12/27 05:06:47;;;;;;;10.10;2.45;;;2.10;92.30;;;;;;5090975;28;20020;-45
2023/12/27 05:09:16;;;;;;;9.45;2.50;;;2.10;92.30;;;;;;5074888;28;20107;-46
2023/12/27 05:11:43;;;;;;;7.85;2.13;;;2.20;92.30;;;;;;5075048;28;20017;-46
2023/12/27 05:14:10;;;;;;;6.30;2.20;;;2.10;92.30;;;;;;5081022;28;20064;-45
2023/12/27 05:16:36;;;;;;;7.97;3.30;;;2.10;92.30;;;;;;5074673;28;20133;-45
2023/12/27 05:19:05;;;;;;;10.70;2.35;;;2.10;92.40;;;;;;5075967;28;20045;-48
2023/12/27 05:21:32;;;;;;;7.93;1.92;;;2.10;92.40;;;;;;5076208;28;20059;-46
2023/12/27 05:23:57;;;;;;;10.38;2.50;;;2.10;92.30;;;;;;5073813;28;20056;-46
2023/12/27 05:26:23;;;;;;;9.18;2.55;;;2.10;92.40;;;;;;5074823;28;20475;-46
2023/12/27 05:28:50;;;;;;;9.60;2.35;;;2.20;92.50;;;;;;5073900;28;20032;-46
2023/12/27 05:31:17;;;;;;;5.97;2.15;;;2.20;92.50;;;;;;5084533;28;20028;-45
2023/12/27 05:33:44;;;;;;;6.70;1.75;;;2.10;92.50;;;;;;5080144;28;20032;-48
2023/12/27 05:36:11;;;;;;;10.25;2.13;;;2.10;92.50;;;;;;5074020;28;20351;-45
2023/12/27 05:38:38;;;;;;;9.63;2.42;;;2.10;92.50;;;;;;5071084;28;20413;-46
2023/12/27 05:41:05;;;;;;;7.53;1.95;;;2.10;92.60;;;;;;5075267;28;20039;-45
2023/12/27 05:43:32;;;;;;;13.50;2.20;;;2.10;92.60;;;;;;5084780;28;20464;-46
2023/12/27 05:45:59;;;;;;;8.07;2.55;;;2.10;92.60;;;;;;5074775;28;20354;-45
2023/12/27 05:48:27;;;;;;;7.85;2.35;;;2.10;92.60;;;;;;5074758;28;20025;-45
2023/12/27 05:50:54;;;;;;;15.43;3.60;;;2.20;92.60;;;;;;5074672;28;20166;-45
2023/12/27 05:53:21;;;;;;;9.50;2.13;;;2.10;92.50;;;;;;5075555;28;20039;-45
2023/12/27 05:55:50;;;;;;;11.77;4.68;;;2.10;92.60;;;;;;5074333;28;20572;-45
2023/12/27 05:58:19;;;;;;;11.50;2.40;;;2.10;92.50;;;;;;5076074;28;20024;-46
2023/12/27 06:00:47;;;;;;;6.07;1.90;;;2.10;92.50;;;;;;5057516;28;20358;-45
2023/12/27 06:03:16;;;;;;;5.32;1.80;;;2.10;92.50;;;;;;5073461;28;20446;-46
2023/12/27 06:05:42;;;;;;;12.45;4.40;;;2.10;92.50;;;;;;5081624;28;20016;-45
2023/12/27 06:08:08;;;;;;;7.22;2.28;;;2.10;92.50;;;;;;5061187;28;20505;-45
2023/12/27 06:10:34;;;;;;;12.25;3.08;;;2.10;92.50;;;;;;5078817;28;20043;-44
2023/12/27 06:13:01;;;;;;;7.25;2.30;;;2.10;92.50;;;;;;5078360;28;20178;-44
2023/12/27 06:15:28;;;;;;;9.82;2.78;;;2.20;92.50;;;;;;5080767;28;20463;-45
2023/12/27 06:17:55;;;;;;;6.78;2.25;;;2.20;92.40;;;;;;5092065;28;20099;-45
2023/12/27 06:20:22;;;;;;;10.32;2.85;;;2.10;92.30;;;;;;5089505;28;20020;-47
2023/12/27 06:22:48;;;;;;;6.90;2.47;;;2.10;92.30;;;;;;5086138;28;20709;-46
2023/12/27 06:25:14;;;;;;;11.07;2.03;;;2.10;92.30;;;;;;5087772;28;20035;-45
2023/12/27 06:27:41;;;;;;;12.57;2.70;;;2.10;92.30;;;;;;5085727;28;20016;-47
2023/12/27 06:30:08;;;;;;;8.52;2.70;;;2.10;92.30;;;;;;5079838;28;20671;-46
2023/12/27 06:32:35;;;;;;;12.68;2.63;;;2.10;92.40;;;;;;5075265;28;20029;-45
2023/12/27 06:35:02;;;;;;;6.18;2.72;;;2.10;92.40;;;;;;5074583;28;20056;-45
2023/12/27 06:37:27;;;;;;;8.60;2.70;;;2.10;92.40;;;;;;5081363;28;20016;-46
2023/12/27 06:39:54;;;;;;;9.73;2.58;;;2.10;92.40;;;;;;5072963;28;20085;-45
2023/12/27 06:42:24;;;;;;;10.27;2.63;;;2.10;92.30;;;;;;5069233;28;20029;-46
2023/12/27 06:44:51;;;;;;;10.63;3.22;;;2.00;92.30;;;;;;5081947;28;20024;-45
2023/12/27 06:47:16;;;;;;;11.80;3.05;;;2.00;92.30;;;;;;5084450;28;20099;-47
2023/12/27 06:49:46;;;;;;;8.00;2.65;;;2.10;92.40;;;;;;5074954;28;20124;-48
2023/12/27 06:52:17;;;;;;;8.40;3.17;;;2.00;92.30;;;;;;5079871;28;20024;-46
2023/12/27 06:54:44;;;;;;;9.10;2.85;;;2.10;92.40;;;;;;5066273;28;20700;-46
2023/12/27 06:57:10;;;;;;;11.07;3.90;;;2.10;92.40;;;;;;5062040;28;20025;-46
2023/12/27 06:59:37;;;;;;;10.43;2.78;;;2.10;92.40;;;;;;5078604;28;20039;-46
2023/12/27 07:02:07;;;;;;;10.13;3.05;;;2.10;92.40;;;;;;5075260;28;20025;-47
2023/12/27 07:04:35;;;;;;;9.35;4.07;;;2.20;92.40;;;;;;5073086;28;20069;-48
2023/12/27 07:07:01;;;;;;;10.45;2.72;;;2.20;92.30;;;;;;5073305;28;20449;-46
2023/12/27 07:09:27;;;;;;;8.35;2.47;;;2.20;92.30;;;;;;5074214;28;20056;-50
2023/12/27 07:11:54;;;;;;;6.05;2.42;;;2.20;92.30;;;;;;5080253;28;20357;-47
2023/12/27 07:14:20;;;;;;;12.43;2.85;;;2.20;92.40;;;;;;5079593;28;20035;-47
2023/12/27 07:16:49;;;;;;;8.00;2.15;;;2.20;92.30;;;;;;5080624;28;20032;-47
2023/12/27 07:19:17;;;;;;;7.15;2.20;;;2.20;92.30;;;;;;5076787;28;20052;-51
2023/12/27 07:21:44;;;;;;;7.85;2.60;;;2.20;92.30;;;;;;5081468;28;20105;-46
2023/12/27 07:24:11;;;;;;;9.43;2.03;;;2.20;92.30;;;;;;5077505;28;20039;-47
2023/12/27 07:26:38;;;;;;;6.80;3.03;;;2.30;92.30;;;;;;5061830;28;20054;-48
2023/12/27 07:29:04;;;;;;;16.42;2.85;;;2.30;92.20;;;;;;5076355;28;20028;-51
2023/12/27 07:31:36;;;;;;;10.40;2.58;;;2.20;92.10;;;;;;5069497;28;20025;-47
2023/12/27 07:34:03;;;;;;;11.75;4.35;;;2.20;92.10;;;;;;5087137;28;20020;-50
2023/12/27 07:36:30;;;;;;;9.48;2.50;;;2.30;92.20;;;;;;5062770;28;20051;-50
2023/12/27 07:38:56;;;;;;;5.15;2.10;;;2.30;92.10;;;;;;5071399;28;20417;-47
2023/12/27 07:41:22;;;;;;;7.53;2.42;;;2.20;92.00;;;;;;5072237;28;20119;-51
2023/12/27 07:43:49;;;;;;;7.60;2.28;;;2.30;92.20;;;;;;5084844;28;20119;-52
2023/12/27 07:46:16;;;;;;;9.82;2.67;;;2.30;92.10;;;;;;5085190;28;20035;-47
2023/12/27 07:48:43;;;;;;;8.57;2.92;;;2.30;92.10;;;;;;5081559;28;20028;-50
2023/12/27 07:51:09;;;;;;;10.18;3.03;;;2.20;92.10;;;;;;5083827;28;20072;-49
2023/12/27 07:53:36;;;;;;;10.93;3.25;;;2.20;92.30;;;;;;5087195;28;20036;-49
2023/12/27 07:56:07;;;;;;;10.45;3.00;;;2.30;92.40;;;;;;5081120;28;20054;-52
2023/12/27 07:58:34;;;;;;;11.20;3.00;;;2.30;92.50;;;;;;5084511;28;20042;-52
2023/12/27 08:01:01;;;;;;;9.02;2.75;;;2.30;92.40;;;;;;5072442;28;20090;-47
2023/12/27 08:03:26;;;;;;;11.50;3.28;;;2.30;92.40;;;;;;5070867;28;20086;-52
2023/12/27 08:05:53;;;;;;;12.38;3.00;;;2.30;92.50;;;;;;5077793;28;20024;-47
2023/12/27 08:08:19;;;;;;;11.50;3.72;;;2.30;92.60;;;;;;5071479;28;20028;-52
2023/12/27 08:10:47;;;;;;;10.73;4.25;;;2.30;92.60;;;;;;5071405;28;20035;-53
2023/12/27 08:13:13;;;;;;;11.15;4.47;;;2.40;92.60;;;;;;5075496;28;20039;-53
2023/12/27 08:15:40;;;;;;;8.73;4.45;;;2.50;92.70;;;;;;5069123;28;20056;-47
2023/12/27 08:18:09;;;;;;;17.77;7.10;;;2.50;92.70;;;;;;5063304;28;20028;-48
2023/12/27 08:20:35;;;;;;;11.43;7.03;;;2.60;92.70;;;;;;5070209;28;20017;-51
2023/12/27 08:23:02;;;;;;;11.05;4.90;;;2.60;92.60;;;;;;5073971;28;20067;-52
2023/12/27 08:25:29;;;;;;;11.82;4.65;;;2.60;92.50;;;;;;5071171;28;20060;-49
2023/12/27 08:28:00;;;;;;;15.43;4.28;;;2.60;92.50;;;;;;5074815;28;20477;-48
2023/12/27 08:30:30;;;;;;;12.50;4.20;;;2.60;92.40;;;;;;5071895;28;20603;-50
2023/12/27 08:32:58;;;;;;;12.05;4.13;;;2.60;92.30;;;;;;5071704;28;20043;-54
2023/12/27 08:35:26;;;;;;;18.05;6.38;;;2.70;92.40;;;;;;5080270;28;20115;-49
2023/12/27 08:37:53;;;;;;;18.42;6.97;;;2.70;92.40;;;;;;5057241;28;20072;-50
2023/12/27 08:40:20;;;;;;;20.38;7.50;;;2.70;92.20;;;;;;5081047;28;20028;-52
2023/12/27 08:42:46;;;;;;;21.10;6.13;;;2.70;92.10;;;;;;5078157;28;20028;-52
2023/12/27 08:45:14;;;;;;;21.90;8.02;;;2.80;92.20;;;;;;5080645;28;20024;-50
2023/12/27 08:47:43;;;;;;;18.83;6.57;;;2.80;92.20;;;;;;5064770;28;20017;-49
2023/12/27 08:50:10;;;;;;;13.35;7.07;;;2.90;92.30;;;;;;5085359;28;20598;-53
2023/12/27 08:52:41;;;;;;;14.25;5.75;;;2.90;92.20;;;;;;5075979;28;20048;-47
2023/12/27 08:55:12;;;;;;;17.27;5.03;;;2.90;92.20;;;;;;5071846;28;20051;-51
2023/12/27 08:57:39;;;;;;;17.88;7.25;;;2.90;92.30;;;;;;5074976;28;20021;-47
2023/12/27 09:00:10;;;;;;;17.05;7.57;;;3.00;92.20;;;;;;5073579;28;20043;-47
2023/12/27 09:02:39;;;;;;;11.50;7.03;;;3.00;92.20;;;;;;5074175;28;20185;-48
2023/12/27 09:05:07;;;;;;;8.93;4.47;;;3.00;92.20;;;;;;5055964;28;20438;-51
2023/12/27 09:07:33;;;;;;;10.35;3.70;;;3.10;92.10;;;;;;5068992;28;20079;-49
2023/12/27 09:10:01;;;;;;;12.80;3.63;;;3.10;92.00;;;;;;5055461;28;20066;-52
2023/12/27 09:12:28;;;;;;;8.55;3.38;;;3.10;91.90;;;;;;5073587;28;20040;-53
2023/12/27 09:14:56;;;;;;;10.60;3.35;;;3.20;91.90;;;;;;5073641;28;20089;-51
2023/12/27 09:17:23;;;;;;;9.30;3.53;;;3.20;91.90;;;;;;5073343;28;20037;-47
2023/12/27 09:19:50;;;;;;;8.43;3.38;;;3.30;91.90;;;;;;5053486;28;20091;-46
2023/12/27 09:22:17;;;;;;;12.30;4.50;;;3.20;91.70;;;;;;5074657;28;20105;-51
2023/12/27 09:24:43;;;;;;;11.55;4.63;;;3.20;91.60;;;;;;5075134;28;20426;-50
2023/12/27 09:27:17;;;;;;;14.13;4.68;;;3.30;91.70;;;;;;5074730;28;20051;-46
2023/12/27 09:29:44;;;;;;;8.40;3.72;;;3.40;91.80;;;;;;5073205;28;20154;-50
2023/12/27 09:32:12;;;;;;;7.85;3.55;;;3.40;91.70;;;;;;5052278;28;20108;-50
2023/12/27 09:34:39;;;;;;;12.82;4.28;;;3.50;91.70;;;;;;5071951;28;20055;-47
2023/12/27 09:37:05;;;;;;;10.40;3.80;;;3.50;91.70;;;;;;5070590;28;20025;-49
2023/12/27 09:39:31;;;;;;;11.93;3.42;;;3.50;91.60;;;;;;5073258;28;20012;-46
2023/12/27 09:41:58;;;;;;;8.55;3.25;;;3.50;91.50;;;;;;5073146;28;20027;-50
2023/12/27 09:44:25;;;;;;;8.00;3.13;;;3.60;91.70;;;;;;5068114;28;20028;-49
2023/12/27 09:46:53;;;;;;;5.38;3.20;;;3.70;91.70;;;;;;5070226;28;20071;-48
2023/12/27 09:49:21;;;;;;;9.40;2.55;;;3.70;91.70;;;;;;5073242;28;20365;-51
2023/12/27 09:51:48;;;;;;;10.32;3.03;;;3.80;91.70;;;;;;5052676;28;20350;-49
2023/12/27 09:54:16;;;;;;;10.20;3.78;;;3.80;91.50;;;;;;5072778;28;20048;-49
2023/12/27 09:56:44;;;;;;;13.70;4.57;;;3.80;91.60;;;;;;5068787;28;20017;-51
2023/12/27 09:59:19;;;;;;;13.48;7.30;;;3.90;91.70;;;;;;5073273;28;20056;-48
2023/12/27 10:01:53;;;;;;;10.98;6.50;;;3.90;91.60;;;;;;5081910;28;20051;-49
2023/12/27 10:04:36;;;;;;;10.95;6.30;;;4.00;91.70;;;;;;5081189;28;20477;-48
2023/12/27 10:07:07;;;;;;;17.75;10.27;;;4.00;91.60;;;;;;5064045;28;20577;-47
2023/12/27 10:09:33;;;;;;;15.30;6.60;;;4.10;91.60;;;;;;5088393;28;20028;-49
2023/12/27 10:12:01;;;;;;;9.65;4.45;;;4.10;91.60;;;;;;5072241;28;20024;-50
2023/12/27 10:14:30;;;;;;;11.88;4.03;;;4.20;91.60;;;;;;5070669;28;20510;-51
2023/12/27 10:16:57;;;;;;;13.50;3.22;;;4.30;91.50;;;;;;5060560;28;20048;-49
2023/12/27 10:19:44;;;;;;;8.20;2.95;;;4.30;91.40;;;;;;5084471;28;20078;-48
2023/12/27 10:22:12;;;;;;;8.57;3.63;;;4.40;91.40;;;;;;5087511;28;20033;-48
2023/12/27 10:24:40;;;;;;;15.48;4.95;;;4.40;91.40;;;;;;5073666;28;20054;-49
2023/12/27 10:27:08;;;;;;;5.22;2.20;;;4.40;91.20;;;;;;5072523;28;20028;-47
2023/12/27 10:29:35;;;;;;;13.32;3.45;;;4.50;91.20;;;;;;5077879;28;20013;-48
2023/12/27 10:32:03;;;;;;;9.10;2.95;;;4.50;91.30;;;;;;5079541;28;20024;-49
2023/12/27 10:34:30;;;;;;;8.55;3.67;;;4.50;91.20;;;;;;5072735;28;20029;-46
2023/12/27 10:36:58;;;;;;;9.00;3.20;;;4.50;91.20;;;;;;5071916;28;20378;-50
2023/12/27 10:39:28;;;;;;;10.32;3.13;;;4.50;91.20;;;;;;5082059;28;20062;-49
2023/12/27 10:42:00;;;;;;;8.68;3.05;;;4.60;91.20;;;;;;5072564;28;20449;-46
2023/12/27 10:44:27;;;;;;;14.02;4.38;;;4.60;91.20;;;;;;5074946;28;20036;-46
2023/12/27 10:46:56;;;;;;;17.40;7.72;;;4.60;90.90;;;;;;5080960;28;20028;-47
2023/12/27 10:49:24;;;;;;;16.65;8.15;;;4.60;91.10;;;;;;5079091;28;20099;-48
2023/12/27 10:51:53;;;;;;;9.07;4.07;;;4.60;91.00;;;;;;5075109;28;20501;-46
2023/12/27 10:54:22;;;;;;;17.57;4.20;;;4.60;90.90;;;;;;5081017;28;20097;-46
2023/12/27 10:56:52;;;;;;;9.85;4.55;;;4.70;90.90;;;;;;5076435;28;20032;-47
2023/12/27 10:59:19;;;;;;;11.85;4.65;;;4.70;91.00;;;;;;5072174;28;20028;-48
2023/12/27 11:01:48;;;;;;;10.05;4.55;;;4.70;90.90;;;;;;5074705;28;20048;-46
2023/12/27 11:04:17;;;;;;;10.90;5.75;;;4.70;90.70;;;;;;5074944;28;20024;-51
2023/12/27 11:06:45;;;;;;;13.77;4.57;;;4.70;90.70;;;;;;5074584;28;20024;-50
2023/12/27 11:09:16;;;;;;;7.30;3.67;;;4.70;90.60;;;;;;5051368;28;20040;-47
2023/12/27 11:11:46;;;;;;;10.95;3.88;;;4.70;90.60;;;;;;5069042;28;20135;-51
2023/12/27 11:14:14;;;;;;;;;;;4.80;90.40;;;;;;5073043;28;20059;-51
2023/12/27 11:16:44;;;;;;;9.68;3.10;;;4.80;90.40;;;;;;5072638;28;19995;-50
2023/12/27 11:19:11;;;;;;;10.90;3.95;;;4.80;90.40;;;;;;5072654;28;20032;-47
2023/12/27 11:21:40;;;;;;;14.80;3.88;;;4.80;90.30;;;;;;5083399;28;20032;-53
2023/12/27 11:24:07;;;;;;;10.05;3.20;;;4.80;90.20;;;;;;5076476;28;20021;-47
2023/12/27 11:26:39;;;;;;;13.38;4.03;;;4.90;89.90;;;;;;5078456;28;20016;-47
2023/12/27 11:29:10;;;;;;;12.13;3.40;;;4.90;89.90;;;;;;5077939;28;20060;-48
2023/12/27 11:31:41;;;;;;;8.63;3.15;;;4.90;90.00;;;;;;5068573;28;20465;-47
2023/12/27 11:34:11;;;;;;;10.48;3.03;;;4.90;89.80;;;;;;5066939;28;20326;-47
2023/12/27 11:36:38;;;;;;;7.28;2.35;;;4.90;89.90;;;;;;5070984;28;20462;-49
2023/12/27 11:39:26;;;;;;;9.32;2.53;;;5.00;89.70;;;;;;5073311;28;20477;-49
2023/12/27 11:41:53;;;;;;;11.15;2.85;;;5.00;89.70;;;;;;5057681;28;20029;-50
2023/12/27 11:44:20;;;;;;;11.85;2.55;;;5.10;89.40;;;;;;5071423;28;20045;-47
2023/12/27 11:46:47;;;;;;;6.88;2.40;;;5.10;89.20;;;;;;5072300;28;20025;-48
2023/12/27 11:49:20;;;;;;;10.52;2.40;;;5.10;88.70;;;;;;5072155;28;20394;-46
2023/12/27 11:51:47;;;;;;;14.75;2.80;;;5.10;88.80;;;;;;5072774;28;20121;-49
2023/12/27 11:54:24;;;;;;;12.02;2.13;;;5.20;88.90;;;;;;5072490;28;20017;-47
2023/12/27 11:56:55;;;;;;;15.57;2.70;;;5.20;88.60;;;;;;5071189;28;20556;-48
2023/12/27 11:59:22;;;;;;;9.00;2.08;;;5.20;88.10;;;;;;5052787;28;20032;-48
2023/12/27 12:01:50;;;;;;;13.32;3.42;;;5.30;87.80;;;;;;5070080;28;20033;-49
2023/12/27 12:04:30;;;;;;;10.85;2.50;;;5.30;87.70;;;;;;5085221;28;20350;-49
2023/12/27 12:07:07;;;;;;;13.50;3.38;;;5.30;87.60;;;;;;5075780;28;20025;-49
2023/12/27 12:09:38;;;;;;;8.70;3.05;;;5.40;87.60;;;;;;5071663;28;20040;-49
2023/12/27 12:12:17;;;;;;;13.18;3.97;;;5.40;87.60;;;;;;5055825;28;20082;-47
2023/12/27 12:14:44;;;;;;;11.55;3.92;;;5.30;87.50;;;;;;5074326;28;20059;-52
2023/12/27 12:17:13;;;;;;;8.50;3.50;;;5.30;87.60;;;;;;5080904;28;20040;-48
2023/12/27 12:19:40;;;;;;;10.38;4.78;;;5.40;87.70;;;;;;5081047;28;20036;-46
2023/12/27 12:22:07;;;;;;;11.30;3.75;;;5.40;87.50;;;;;;5079144;28;20024;-49
2023/12/27 12:24:34;;;;;;;11.95;3.90;;;5.40;87.40;;;;;;5075503;28;20024;-50
2023/12/27 12:27:03;;;;;;;12.15;3.65;;;5.40;87.50;;;;;;5076890;28;20028;-50
2023/12/27 12:29:31;;;;;;;8.90;2.95;;;5.40;87.20;;;;;;5076623;28;20020;-50
2023/12/27 12:31:58;;;;;;;10.15;2.55;;;5.40;87.40;;;;;;5080367;28;20360;-49
2023/12/27 12:34:25;;;;;;;5.88;2.15;;;5.30;87.60;;;;;;5081931;28;20024;-47
2023/12/27 12:36:56;;;;;;;14.07;3.38;;;5.30;87.40;;;;;;5082833;28;20013;-47
2023/12/27 12:39:22;;;;;;;7.57;2.53;;;5.30;87.80;;;;;;5074195;28;20032;-47
2023/12/27 12:41:51;;;;;;;7.45;2.20;;;5.30;87.90;;;;;;5072908;28;20025;-48
2023/12/27 12:44:18;;;;;;;7.63;2.47;;;5.30;87.90;;;;;;5078992;28;20016;-47
2023/12/27 12:46:44;;;;;;;13.27;3.20;;;5.30;87.60;;;;;;5092010;28;20471;-47
2023/12/27 12:49:12;;;;;;;11.10;2.67;;;5.30;87.50;;;;;;5086900;28;20042;-48
2023/12/27 12:51:39;;;;;;;13.07;3.38;;;5.30;87.70;;;;;;5075494;28;20108;-47
2023/12/27 12:54:07;;;;;;;10.43;2.90;;;5.20;87.90;;;;;;5075272;28;20039;-47
2023/12/27 12:56:33;;;;;;;9.60;2.72;;;5.30;88.00;;;;;;5061045;28;20020;-48